Time;durP1;ratioP1;P1;durP2;ratioP2;P2;SDS_P1;SDS_P2;PMS_P1;PMS_P2;Temp;Humidity;BMP_temperature;BMP_pressure;BME280_temperature;BME280_humidity;BME280_pressure;Samples;Min_cycle;Max_cycle;Signal;HPM_P1;HPM_P2
2023/10/21 00:01:35;;;;;;;6.90;3.15;;;;;;;19.99;36.82;94296.16;5071076;28;20153;-70
2023/10/21 00:04:00;;;;;;;6.13;2.45;;;;;;;19.95;36.62;94335.28;5070131;28;20044;-71
2023/10/21 00:06:26;;;;;;;7.13;1.90;;;;;;;19.82;36.88;94343.91;5069730;28;20025;-72
2023/10/21 00:08:51;;;;;;;7.25;1.98;;;;;;;19.67;36.99;94334.50;5069287;28;20086;-72
2023/10/21 00:11:16;;;;;;;5.47;2.13;;;;;;;19.55;39.04;94345.56;5070671;28;20036;-72
2023/10/21 00:13:42;;;;;;;6.00;1.92;;;;;;;19.41;37.82;94333.31;5033300;28;20060;-72
2023/10/21 00:16:07;;;;;;;5.88;2.08;;;;;;;19.27;40.96;94331.59;5066375;28;20037;-72
2023/10/21 00:18:33;;;;;;;7.22;2.10;;;;;;;19.09;42.20;94325.00;5069682;28;20048;-72
2023/10/21 00:20:58;;;;;;;7.80;2.13;;;;;;;18.82;42.52;94336.31;5069630;28;20479;-72
2023/10/21 00:23:24;;;;;;;5.85;1.83;;;;;;;18.69;41.67;94337.78;5068884;28;20043;-72
2023/10/21 00:25:49;;;;;;;7.43;2.00;;;;;;;18.88;39.04;94323.19;5052878;28;20499;-72
2023/10/21 00:28:15;;;;;;;4.07;1.50;;;;;;;18.87;38.31;94318.13;5070121;28;20093;-72
2023/10/21 00:30:41;;;;;;;10.52;2.30;;;;;;;18.92;37.41;94323.66;5070873;28;20532;-72
2023/10/21 00:33:06;;;;;;;5.25;1.48;;;;;;;19.61;32.92;94313.19;5051660;28;20169;-71
2023/10/21 00:35:31;;;;;;;6.47;1.50;;;;;;;19.38;36.42;94339.78;5071089;28;20029;-72
2023/10/21 00:37:57;;;;;;;8.75;2.47;;;;;;;19.14;38.63;94333.13;5069367;28;20032;-72
2023/10/21 00:40:22;;;;;;;5.60;2.40;;;;;;;18.57;40.30;94325.31;5070194;28;20025;-72
2023/10/21 00:42:48;;;;;;;6.50;2.90;;;;;;;18.31;41.17;94311.72;5050924;28;20031;-72
2023/10/21 00:45:13;;;;;;;8.23;3.17;;;;;;;17.98;42.19;94342.88;5068901;28;20513;-72
2023/10/21 00:47:39;;;;;;;6.40;2.70;;;;;;;17.70;42.65;94361.09;5052413;28;20021;-72
2023/10/21 00:50:05;;;;;;;5.80;3.00;;;;;;;17.67;43.21;94356.22;5069318;28;20032;-72
2023/10/21 00:52:30;;;;;;;8.23;2.65;;;;;;;17.22;44.13;94370.28;5050889;28;20036;-72
2023/10/21 00:54:56;;;;;;;9.90;2.80;;;;;;;17.09;44.29;94371.69;5069765;28;20056;-72
2023/10/21 00:57:21;;;;;;;8.45;2.78;;;;;;;16.96;45.20;94359.19;5052594;28;20033;-73
2023/10/21 00:59:47;;;;;;;6.28;2.42;;;;;;;16.86;45.26;94369.13;5047196;28;20434;-72
2023/10/21 01:02:12;;;;;;;5.43;2.75;;;;;;;16.90;44.74;94375.63;5035710;28;20040;-72
2023/10/21 01:04:38;;;;;;;5.72;2.45;;;;;;;16.21;46.17;94351.16;5069092;28;20032;-72
2023/10/21 01:07:03;;;;;;;6.43;2.50;;;;;;;16.38;46.69;94376.31;5069274;28;20406;-72
2023/10/21 01:09:30;;;;;;;8.38;3.17;;;;;;;16.50;46.55;94388.00;5068213;28;20044;-72
2023/10/21 01:11:55;;;;;;;9.82;2.72;;;;;;;16.49;46.64;94389.03;5069023;28;20253;-72
2023/10/21 01:14:20;;;;;;;8.98;2.90;;;;;;;16.37;47.06;94398.25;5070423;28;20043;-72
2023/10/21 01:16:46;;;;;;;11.13;2.90;;;;;;;16.23;47.31;94397.16;5068802;28;20478;-72
2023/10/21 01:19:13;;;;;;;7.15;2.40;;;;;;;16.21;47.29;94404.38;5068933;28;20053;-72
2023/10/21 01:21:39;;;;;;;8.35;4.03;;;;;;;15.97;48.30;94400.09;5068800;28;20078;-72
2023/10/21 01:24:05;;;;;;;6.03;2.80;;;;;;;16.03;47.72;94401.22;5070365;28;20037;-72
2023/10/21 01:26:30;;;;;;;6.82;2.60;;;;;;;15.98;48.18;94416.59;5068575;28;20380;-73
2023/10/21 01:28:56;;;;;;;6.18;2.60;;;;;;;15.84;48.75;94378.84;5036607;28;20028;-72
2023/10/21 01:31:21;;;;;;;5.57;3.00;;;;;;;16.23;47.78;94414.69;5072951;28;21473;-72
2023/10/21 01:33:57;;;;;;;6.63;2.92;;;;;;;16.02;47.59;94418.72;5072875;28;20037;-72
2023/10/21 01:36:22;;;;;;;8.57;2.70;;;;;;;15.79;49.05;94407.34;5071079;28;20037;-72
2023/10/21 01:38:47;;;;;;;8.35;3.30;;;;;;;15.87;49.08;94417.78;5073474;28;20032;-72
2023/10/21 01:41:13;;;;;;;10.68;3.00;;;;;;;15.56;50.22;94401.97;5074036;28;20028;-72
2023/10/21 01:43:39;;;;;;;9.57;3.28;;;;;;;15.45;49.80;94400.53;5072369;28;20036;-72
2023/10/21 01:46:05;;;;;;;7.55;2.75;;;;;;;15.62;49.15;94396.88;5071034;28;20063;-72
2023/10/21 01:48:30;;;;;;;7.65;2.97;;;;;;;15.59;49.32;94396.41;5073943;28;20408;-72
2023/10/21 01:51:01;;;;;;;6.72;3.13;;;;;;;15.62;49.18;94396.88;5055821;28;20028;-72
2023/10/21 01:53:26;;;;;;;9.80;3.60;;;;;;;15.54;49.70;94409.97;5072523;28;20040;-72
2023/10/21 01:56:01;;;;;;;7.90;3.13;;;;;;;15.58;49.80;94400.84;5071556;28;20032;-72
2023/10/21 01:58:31;;;;;;;7.20;3.42;;;;;;;15.54;50.07;94401.31;5071747;28;20036;-72
2023/10/21 02:00:57;;;;;;;9.20;3.30;;;;;;;15.45;50.30;94389.25;5073293;28;20029;-72
2023/10/21 02:03:23;;;;;;;7.63;2.97;;;;;;;15.47;51.00;94388.09;5071985;28;20040;-72
2023/10/21 02:05:49;;;;;;;6.63;2.38;;;;;;;15.43;49.81;94389.41;5072151;28;20422;-72
2023/10/21 02:08:14;;;;;;;5.68;2.70;;;;;;;15.58;49.24;94403.44;5071868;28;20043;-72
2023/10/21 02:10:40;;;;;;;7.18;2.40;;;;;;;15.74;47.08;94371.22;5073550;28;20029;-72
2023/10/21 02:13:06;;;;;;;7.53;1.90;;;;;;;16.20;45.17;94383.59;5053709;28;20029;-72
2023/10/21 02:15:35;;;;;;;7.18;2.35;;;;;;;16.52;44.77;94383.44;5073201;28;20055;-72
2023/10/21 02:18:00;;;;;;;7.07;2.25;;;;;;;16.64;44.50;94396.94;5071898;28;20057;-72
2023/10/21 02:20:25;;;;;;;8.15;2.42;;;;;;;16.71;44.60;94370.81;5071890;28;20036;-72
2023/10/21 02:22:51;;;;;;;5.80;2.10;;;;;;;16.87;43.16;94377.78;5071728;28;20041;-72
2023/10/21 02:25:17;;;;;;;10.63;2.60;;;;;;;17.13;43.08;94391.38;5073408;28;20035;-72
2023/10/21 02:27:42;;;;;;;6.55;1.90;;;;;;;17.26;42.63;94384.69;5055218;28;20516;-72
2023/10/21 02:30:14;;;;;;;5.28;1.70;;;;;;;17.58;39.95;94373.06;5069672;28;20525;-72
2023/10/21 02:32:45;;;;;;;5.55;2.00;;;;;;;17.74;41.77;94404.38;5055436;28;20089;-72
2023/10/21 02:35:10;;;;;;;4.00;1.70;;;;;;;17.69;41.01;94385.75;5071370;28;20039;-72
2023/10/21 02:37:36;;;;;;;10.48;2.13;;;;;;;17.92;39.39;94390.13;5072654;28;20032;-72
2023/10/21 02:40:03;;;;;;;6.00;2.10;;;;;;;17.84;38.84;94362.13;5070223;28;20033;-72
2023/10/21 02:42:28;;;;;;;8.90;1.80;;;;;;;18.00;39.18;94376.88;5071629;28;20410;-72
2023/10/21 02:44:54;;;;;;;13.27;3.17;;;;;;;18.20;39.36;94372.66;5072507;28;20032;-72
2023/10/21 02:47:19;;;;;;;4.85;1.50;;;;;;;18.56;36.87;94406.03;5071478;28;20125;-72
2023/10/21 02:49:45;;;;;;;7.57;1.70;;;;;;;18.80;36.38;94402.25;5071608;28;20048;-73
2023/10/21 02:52:10;;;;;;;6.32;2.10;;;;;;;18.63;38.33;94396.41;5054108;28;20024;-72
2023/10/21 02:54:36;;;;;;;8.02;4.30;;;;;;;18.34;41.54;94409.63;5072792;28;20036;-72
2023/10/21 02:57:01;;;;;;;9.93;3.35;;;;;;;17.70;43.06;94413.63;5070990;28;20102;-72
2023/10/21 02:59:26;;;;;;;5.32;3.10;;;;;;;17.55;43.91;94429.38;5069998;28;20025;-72
2023/10/21 03:01:52;;;;;;;6.38;3.05;;;;;;;17.48;44.11;94438.13;5072147;28;20456;-72
2023/10/21 03:04:18;;;;;;;6.85;2.83;;;;;;;17.11;44.24;94430.09;5071397;28;20409;-72
2023/10/21 03:06:43;;;;;;;10.13;3.03;;;;;;;16.68;45.51;94421.81;5069814;28;20020;-72
2023/10/21 03:09:09;;;;;;;12.23;3.67;;;;;;;16.67;46.04;94448.22;5054368;28;20033;-72
2023/10/21 03:11:34;;;;;;;11.80;4.55;;;;;;;16.52;47.10;94448.97;5071926;28;20035;-72
2023/10/21 03:14:00;;;;;;;8.27;4.00;;;;;;;16.20;47.74;94451.72;5070747;28;20044;-72
2023/10/21 03:16:25;;;;;;;8.88;3.63;;;;;;;15.80;49.21;94446.47;5070093;28;20012;-72
2023/10/21 03:18:51;;;;;;;8.52;3.15;;;;;;;16.06;47.29;94450.63;5070823;28;20434;-72
2023/10/21 03:21:17;;;;;;;6.70;3.97;;;;;;;16.04;47.81;94450.78;5053904;28;20586;-72
2023/10/21 03:23:42;;;;;;;10.85;3.67;;;;;;;16.09;47.85;94448.50;5072196;28;20029;-72
2023/10/21 03:26:07;;;;;;;8.13;4.00;;;;;;;16.04;48.67;94456.03;5069789;28;20032;-72
2023/10/21 03:28:34;;;;;;;10.43;3.80;;;;;;;15.81;49.38;94452.50;5050358;28;20025;-73
2023/10/21 03:31:00;;;;;;;7.10;3.42;;;;;;;15.69;49.18;94438.97;5069522;28;20040;-72
2023/10/21 03:33:26;;;;;;;7.38;2.25;;;;;;;16.09;45.90;94437.19;5052596;28;20039;-72
2023/10/21 03:35:56;;;;;;;5.57;3.03;;;;;;;15.97;48.05;94425.47;5070388;28;20039;-72
2023/10/21 03:38:21;;;;;;;9.90;2.83;;;;;;;16.08;47.71;94428.53;5053858;28;20029;-72
2023/10/21 03:41:15;;;;;;;6.47;2.08;;;;;;;16.31;46.28;94440.88;5070698;28;20032;-72
2023/10/21 03:43:40;;;;;;;6.85;3.70;;;;;;;16.40;47.41;94434.59;5066345;28;20044;-72
2023/10/21 03:46:07;;;;;;;7.63;2.85;;;;;;;16.28;47.33;94422.88;5027532;28;20498;-72
2023/10/21 03:48:33;;;;;;;6.25;2.47;;;;;;;16.50;46.15;94422.09;5050196;28;20033;-72
2023/10/21 03:51:11;;;;;;;7.80;2.22;;;;;;;16.71;44.03;94403.09;5056471;28;20028;-72
2023/10/21 03:53:36;;;;;;;8.43;1.98;;;;;;;16.81;41.34;94378.50;5054100;28;20092;-72
2023/10/21 03:56:02;;;;;;;8.57;2.10;;;;;;;17.25;43.57;94430.31;5070404;28;20025;-72
2023/10/21 03:58:28;;;;;;;6.05;2.75;;;;;;;17.08;44.83;94400.75;5069986;28;20044;-72
2023/10/21 04:00:59;;;;;;;5.20;2.70;;;;;;;17.34;41.72;94406.41;5052605;28;20402;-72
2023/10/21 04:03:25;;;;;;;6.00;2.03;;;;;;;17.92;39.08;94413.75;5071530;28;20036;-72
2023/10/21 04:05:54;;;;;;;6.68;1.90;;;;;;;18.18;38.51;94411.47;5068790;28;20039;-72
2023/10/21 04:08:20;;;;;;;9.48;2.05;;;;;;;18.40;37.94;94412.34;5063773;28;20029;-72
2023/10/21 04:10:45;;;;;;;8.20;2.63;;;;;;;18.48;39.29;94400.91;5069026;28;20025;-72
2023/10/21 04:13:11;;;;;;;8.35;2.30;;;;;;;18.31;39.81;94406.38;5052217;28;20036;-72
2023/10/21 04:15:37;;;;;;;5.85;2.40;;;;;;;18.27;39.87;94418.22;5066073;28;20109;-72
2023/10/21 04:18:03;;;;;;;4.78;2.08;;;;;;;18.27;40.69;94412.97;5069129;28;20479;-73
2023/10/21 04:20:28;;;;;;;4.50;2.20;;;;;;;18.15;41.11;94416.28;5069167;28;20032;-72
2023/10/21 04:22:54;;;;;;;8.82;3.50;;;;;;;18.16;41.19;94423.16;5051125;28;20036;-73
2023/10/21 04:25:21;;;;;;;9.60;3.08;;;;;;;17.95;41.53;94410.78;5067217;28;20036;-72
2023/10/21 04:27:46;;;;;;;7.18;2.75;;;;;;;17.90;41.97;94418.38;5068755;28;20405;-72
2023/10/21 04:30:12;;;;;;;10.00;3.55;;;;;;;17.67;43.14;94435.00;5069211;28;20024;-72
2023/10/21 04:32:37;;;;;;;7.50;2.80;;;;;;;17.62;43.79;94426.84;5068021;28;20035;-72
2023/10/21 04:35:05;;;;;;;7.40;2.85;;;;;;;17.51;43.17;94429.91;5052611;28;20028;-72
2023/10/21 04:37:31;;;;;;;8.82;2.50;;;;;;;17.50;42.97;94428.28;5070273;28;20109;-72
2023/10/21 04:39:56;;;;;;;6.43;2.47;;;;;;;17.47;43.52;94423.34;5070190;28;20040;-72
2023/10/21 04:42:23;;;;;;;10.73;2.60;;;;;;;17.47;42.91;94423.34;5068375;28;20020;-72
2023/10/21 04:44:48;;;;;;;9.00;2.25;;;;;;;17.50;42.22;94433.53;5052397;28;20083;-72
2023/10/21 04:47:15;;;;;;;5.90;2.30;;;;;;;17.61;42.10;94435.72;5068995;28;20494;-72
2023/10/21 04:49:43;;;;;;;8.40;2.55;;;;;;;17.42;42.95;94437.03;5052786;28;20032;-72
2023/10/21 04:52:09;;;;;;;10.95;4.18;;;;;;;16.78;46.29;94439.19;5067123;28;20059;-72
2023/10/21 04:54:35;;;;;;;10.85;4.28;;;;;;;16.88;46.39;94451.09;5059136;28;20032;-72
2023/10/21 04:57:00;;;;;;;7.78;3.88;;;;;;;16.73;46.69;94468.50;5069479;28;20028;-72
2023/10/21 04:59:26;;;;;;;15.60;4.00;;;;;;;16.64;47.04;94465.13;5068572;28;20043;-72
2023/10/21 05:01:51;;;;;;;8.20;4.15;;;;;;;16.41;47.64;94472.09;5067993;28;20028;-72
2023/10/21 05:04:16;;;;;;;8.02;3.65;;;;;;;16.38;47.84;94489.03;5073363;28;20054;-72
2023/10/21 05:06:42;;;;;;;10.80;4.10;;;;;;;16.18;48.02;94485.16;5073238;28;20020;-72
2023/10/21 05:09:07;;;;;;;9.07;3.45;;;;;;;16.05;48.52;94480.47;5066219;28;20417;-73
2023/10/21 05:11:33;;;;;;;6.90;3.67;;;;;;;15.86;48.92;94492.13;5072916;28;20422;-72
2023/10/21 05:13:58;;;;;;;7.28;3.85;;;;;;;15.99;49.06;94520.41;5072690;28;20514;-72
2023/10/21 05:16:23;;;;;;;7.45;3.55;;;;;;;15.75;50.00;94493.28;5074324;28;20020;-72
2023/10/21 05:18:49;;;;;;;10.98;3.80;;;;;;;15.41;50.47;94493.47;5071449;28;20053;-72
2023/10/21 05:21:14;;;;;;;7.25;3.45;;;;;;;15.41;51.12;94512.59;5073398;28;20501;-72
2023/10/21 05:23:40;;;;;;;11.50;3.80;;;;;;;15.39;51.45;94513.72;5073114;28;20083;-72
2023/10/21 05:26:05;;;;;;;13.02;4.00;;;;;;;15.18;51.81;94504.56;5074536;28;20026;-72
2023/10/21 05:28:31;;;;;;;11.02;3.60;;;;;;;15.16;52.13;94524.84;5071267;28;20040;-72
2023/10/21 05:30:57;;;;;;;9.65;4.20;;;;;;;15.09;52.44;94539.53;5074366;28;20417;-74
2023/10/21 05:33:23;;;;;;;7.93;4.07;;;;;;;15.10;52.51;94537.72;5072476;28;20033;-72
2023/10/21 05:35:48;;;;;;;10.23;4.38;;;;;;;14.70;52.94;94500.88;5072366;28;20028;-72
2023/10/21 05:38:14;;;;;;;6.40;4.00;;;;;;;14.84;52.72;94512.50;5073225;28;20167;-72
2023/10/21 05:40:41;;;;;;;9.18;4.10;;;;;;;14.88;53.31;94547.84;5074227;28;20505;-72
2023/10/21 05:43:06;;;;;;;7.47;3.60;;;;;;;15.02;53.57;94543.78;5072130;28;20043;-72
2023/10/21 05:45:32;;;;;;;7.32;4.03;;;;;;;14.93;52.86;94542.13;5072493;28;20029;-72
2023/10/21 05:47:57;;;;;;;12.43;4.18;;;;;;;14.87;53.62;94554.03;5072633;28;20048;-72
2023/10/21 05:50:24;;;;;;;7.53;3.92;;;;;;;14.92;53.10;94556.19;5072760;28;20016;-72
2023/10/21 05:52:51;;;;;;;18.10;4.55;;;;;;;14.87;53.25;94555.84;5072138;28;20025;-72
2023/10/21 05:55:17;;;;;;;9.55;4.22;;;;;;;14.73;53.19;94563.31;5071184;28;20051;-72
2023/10/21 05:57:43;;;;;;;6.50;3.72;;;;;;;14.85;53.89;94570.84;5055936;28;20557;-72
2023/10/21 06:00:09;;;;;;;10.55;4.60;;;;;;;14.86;54.43;94580.38;5072361;28;20043;-72
2023/10/21 06:02:34;;;;;;;7.63;4.03;;;;;;;15.00;54.47;94592.81;5072061;28;20534;-72
2023/10/21 06:05:00;;;;;;;7.28;4.22;;;;;;;15.05;53.71;94597.59;5055897;28;20546;-72
2023/10/21 06:07:25;;;;;;;10.70;4.45;;;;;;;15.03;53.03;94584.66;5071838;28;20024;-72
2023/10/21 06:09:50;;;;;;;8.45;3.67;;;;;;;14.99;52.86;94583.34;5055913;28;20095;-72
2023/10/21 06:12:17;;;;;;;8.32;3.72;;;;;;;14.91;52.94;94560.59;5054408;28;20086;-72
2023/10/21 06:14:42;;;;;;;8.90;3.92;;;;;;;15.06;53.69;94592.19;5071669;28;20090;-72
2023/10/21 06:17:08;;;;;;;7.82;3.42;;;;;;;15.03;52.80;94584.66;5072082;28;20509;-72
2023/10/21 06:19:33;;;;;;;10.27;3.97;;;;;;;15.11;53.71;94582.06;5072599;28;20064;-72
2023/10/21 06:21:58;;;;;;;7.28;3.50;;;;;;;15.38;54.18;94594.06;5070559;28;20097;-72
2023/10/21 06:24:24;;;;;;;7.05;4.05;;;;;;;16.28;52.55;94606.34;5072399;28;20037;-72
2023/10/21 06:26:50;;;;;;;8.35;3.58;;;;;;;17.58;49.52;94591.84;5072516;28;20025;-72
2023/10/21 06:29:15;;;;;;;9.23;3.80;;;;;;;18.24;47.37;94584.22;5071517;28;20028;-72
2023/10/21 06:31:41;;;;;;;9.10;4.10;;;;;;;19.18;45.46;94576.59;5071501;28;20028;-73
2023/10/21 06:34:08;;;;;;;8.38;3.55;;;;;;;20.00;43.90;94580.66;5053544;28;20041;-73
2023/10/21 06:36:33;;;;;;;5.65;3.30;;;;;;;21.17;41.25;94560.63;5050943;28;20517;-73
2023/10/21 06:38:59;;;;;;;6.53;3.45;;;;;;;21.84;40.29;94551.00;5063533;28;20033;-73
2023/10/21 06:41:25;;;;;;;9.52;3.42;;;;;;;22.78;38.22;94572.94;5071308;28;20032;-74
2023/10/21 06:43:51;;;;;;;5.88;3.03;;;;;;;23.15;37.06;94569.56;5071613;28;20029;-71
2023/10/21 06:46:16;;;;;;;8.15;3.13;;;;;;;23.96;35.32;94578.72;5055236;28;20397;-71
2023/10/21 06:48:43;;;;;;;6.85;3.13;;;;;;;24.22;34.26;94574.22;5067774;28;20033;-71
2023/10/21 06:51:08;;;;;;;6.72;3.40;;;;;;;24.82;33.32;94560.38;5068888;28;20504;-71
2023/10/21 06:53:33;;;;;;;7.13;3.53;;;;;;;25.00;33.21;94580.84;5068573;28;20029;-71
2023/10/21 06:55:59;;;;;;;7.45;3.15;;;;;;;24.43;34.25;94571.22;5072399;28;20039;-72
2023/10/21 06:58:26;;;;;;;8.60;3.08;;;;;;;24.90;32.89;94563.56;5070032;28;20055;-71
2023/10/21 07:00:51;;;;;;;7.85;3.35;;;;;;;25.42;33.20;94579.94;5070959;28;20445;-71
2023/10/21 07:03:17;;;;;;;7.68;3.20;;;;;;;26.33;32.00;94579.84;5072180;28;20033;-72
2023/10/21 07:05:42;;;;;;;8.40;3.15;;;;;;;25.57;32.38;94578.72;5071770;28;20027;-72
2023/10/21 07:08:07;;;;;;;5.60;2.70;;;;;;;26.18;32.29;94564.31;5068624;28;20036;-71
2023/10/21 07:10:33;;;;;;;7.50;3.00;;;;;;;26.35;32.57;94571.63;5071979;28;20020;-71
2023/10/21 07:12:59;;;;;;;7.97;2.92;;;;;;;27.24;31.36;94568.81;5070715;28;20029;-71
2023/10/21 07:15:25;;;;;;;7.18;2.80;;;;;;;28.12;29.07;94559.50;5046755;28;20483;-73
2023/10/21 07:17:51;;;;;;;8.80;2.83;;;;;;;28.64;27.44;94550.41;5065495;28;20513;-74
2023/10/21 07:20:16;;;;;;;6.90;2.67;;;;;;;29.03;27.17;94542.38;5070428;28;20024;-73
2023/10/21 07:22:43;;;;;;;7.82;2.72;;;;;;;29.16;25.92;94548.19;5070309;28;20021;-73
2023/10/21 07:25:10;;;;;;;10.77;2.85;;;;;;;29.59;26.68;94556.44;5069515;28;20062;-73
2023/10/21 07:27:35;;;;;;;8.32;3.05;;;;;;;30.09;26.05;94544.63;5063934;28;20035;-73
2023/10/21 07:30:01;;;;;;;5.47;2.33;;;;;;;30.92;24.76;94552.19;5052890;28;20028;-73
2023/10/21 07:32:27;;;;;;;11.35;3.40;;;;;;;30.97;24.02;94548.72;5069516;28;20422;-72
2023/10/21 07:34:54;;;;;;;8.50;2.95;;;;;;;30.16;23.96;94522.97;5067853;28;20043;-72
2023/10/21 07:37:19;;;;;;;10.25;3.05;;;;;;;30.11;25.16;94521.03;5067820;28;20090;-71
2023/10/21 07:39:45;;;;;;;10.55;3.22;;;;;;;29.78;25.57;94557.72;5068367;28;20463;-71
2023/10/21 07:42:10;;;;;;;10.35;4.00;;;;;;;29.95;25.99;94560.28;5068004;28;20383;-71
2023/10/21 07:44:36;;;;;;;19.23;4.95;;;;;;;30.24;25.89;94542.06;5070907;28;20089;-71
2023/10/21 07:47:02;;;;;;;9.80;3.80;;;;;;;29.34;26.53;94511.50;5068518;28;20024;-75
2023/10/21 07:49:28;;;;;;;13.35;4.20;;;;;;;28.60;27.96;94554.63;5070342;28;20028;-72
2023/10/21 07:51:53;;;;;;;11.60;4.43;;;;;;;28.21;28.35;94551.88;5068456;28;20414;-71
2023/10/21 07:54:19;;;;;;;12.65;5.20;;;;;;;27.62;28.81;94555.69;5071051;28;20406;-73
2023/10/21 07:56:47;;;;;;;15.85;5.45;;;;;;;26.99;29.95;94551.22;5070507;28;20039;-72
2023/10/21 07:59:12;;;;;;;13.73;5.07;;;;;;;27.28;29.34;94559.31;5069614;28;20036;-74
2023/10/21 08:01:38;;;;;;;11.05;4.95;;;;;;;27.16;28.91;94567.31;5066755;28;20406;-71
2023/10/21 08:04:04;;;;;;;11.90;4.72;;;;;;;27.17;29.72;94547.63;5066896;28;20427;-71
2023/10/21 08:06:30;;;;;;;12.68;4.38;;;;;;;26.52;29.95;94560.09;5069659;28;20024;-72
2023/10/21 08:08:55;;;;;;;16.60;4.45;;;;;;;25.97;30.82;94548.91;5044755;28;20029;-71
2023/10/21 08:11:21;;;;;;;15.35;4.43;;;;;;;25.63;31.53;94570.66;5069533;28;20035;-72
2023/10/21 08:13:47;;;;;;;12.38;4.18;;;;;;;25.19;32.00;94570.00;5069365;28;20040;-72
2023/10/21 08:16:12;;;;;;;11.75;4.65;;;;;;;25.18;32.60;94556.94;5070875;28;20021;-71
2023/10/21 08:18:41;;;;;;;8.52;4.45;;;;;;;25.12;32.46;94553.28;5068827;28;20098;-72
2023/10/21 08:21:06;;;;;;;13.45;4.50;;;;;;;25.02;32.95;94553.03;5068544;28;20470;-72
2023/10/21 08:23:33;;;;;;;11.73;4.00;;;;;;;24.46;33.72;94532.78;5067978;28;20044;-72
2023/10/21 08:25:58;;;;;;;10.38;4.70;;;;;;;24.69;34.56;94553.41;5070192;28;20037;-72
2023/10/21 08:28:24;;;;;;;11.95;4.47;;;;;;;24.83;34.58;94564.69;5067745;28;20036;-72
2023/10/21 08:30:49;;;;;;;10.63;3.88;;;;;;;24.33;33.81;94507.16;5069935;28;20086;-72
2023/10/21 08:33:16;;;;;;;13.88;4.32;;;;;;;24.64;34.08;94543.44;5064461;28;20036;-71
2023/10/21 08:35:42;;;;;;;7.82;3.88;;;;;;;24.51;34.90;94557.63;5068861;28;20060;-72
2023/10/21 08:38:07;;;;;;;9.95;4.28;;;;;;;24.22;34.02;94553.00;5064013;28;20078;-71
2023/10/21 08:40:41;;;;;;;13.63;4.40;;;;;;;24.18;34.27;94534.06;5066233;28;20020;-72
2023/10/21 08:43:08;;;;;;;12.20;4.40;;;;;;;24.26;34.67;94551.53;5030488;28;20029;-72
2023/10/21 08:45:34;;;;;;;11.50;3.90;;;;;;;24.28;35.19;94549.47;5049132;28;20024;-71
2023/10/21 08:48:00;;;;;;;8.95;3.83;;;;;;;24.53;35.72;94536.19;5052098;28;20403;-72
2023/10/21 08:50:26;;;;;;;11.05;3.90;;;;;;;24.45;34.74;94534.63;5068184;28;20035;-72
2023/10/21 08:52:51;;;;;;;8.80;3.78;;;;;;;24.55;34.10;94541.28;5065490;28;20047;-72
2023/10/21 08:55:17;;;;;;;7.40;3.55;;;;;;;24.69;37.09;94543.56;5050817;28;20497;-72
2023/10/21 08:57:42;;;;;;;9.48;4.30;;;;;;;24.38;34.31;94536.53;5070256;28;20158;-73
2023/10/21 09:00:10;;;;;;;8.40;4.00;;;;;;;24.40;32.49;94521.16;5064839;28;20033;-73
2023/10/21 09:02:35;;;;;;;8.05;3.42;;;;;;;24.59;32.47;94524.69;5049812;28;20086;-73
2023/10/21 09:05:12;;;;;;;15.27;3.92;;;;;;;24.84;35.46;94542.41;5027686;28;20024;-72
2023/10/21 09:07:47;;;;;;;9.95;3.28;;;;;;;24.68;34.63;94514.56;5025855;28;20529;-73
2023/10/21 09:10:13;;;;;;;10.25;3.30;;;;;;;24.94;31.01;94513.47;5063254;28;20029;-73
2023/10/21 09:12:39;;;;;;;9.00;3.20;;;;;;;24.95;29.46;94505.25;5045908;28;20518;-73
2023/10/21 09:15:06;;;;;;;10.38;2.72;;;;;;;25.20;28.74;94536.25;5052345;28;20032;-73
2023/10/21 09:17:40;;;;;;;9.52;2.30;;;;;;;25.33;27.43;94527.31;5060325;28;20098;-74
2023/10/21 09:20:13;;;;;;;12.32;2.42;;;;;;;25.59;26.72;94524.25;5063402;28;20032;-72
2023/10/21 09:22:39;;;;;;;9.73;2.10;;;;;;;25.63;27.02;94511.31;5065824;28;20048;-74
2023/10/21 09:25:08;;;;;;;10.63;2.30;;;;;;;25.71;26.21;94516.31;5066534;28;20024;-74
2023/10/21 09:27:33;;;;;;;8.77;2.22;;;;;;;25.69;26.33;94517.59;5069176;28;20024;-74
2023/10/21 09:30:00;;;;;;;6.80;1.95;;;;;;;25.57;26.54;94504.25;5069502;28;20032;-74
2023/10/21 09:32:28;;;;;;;7.78;2.10;;;;;;;25.62;25.87;94523.81;5050498;28;20482;-74
2023/10/21 09:34:54;;;;;;;9.20;2.13;;;;;;;25.85;25.83;94517.78;5034278;28;20040;-74
2023/10/21 09:37:24;;;;;;;11.52;2.33;;;;;;;25.94;24.60;94491.66;5050658;28;20032;-74
2023/10/21 09:39:50;;;;;;;;;;;;;;;26.12;24.43;94509.34;5066016;28;20025;-74
2023/10/21 09:42:15;;;;;;;6.83;2.13;;;;;;;26.21;23.79;94489.31;5067091;28;19920;-74
2023/10/21 09:44:41;;;;;;;9.98;2.25;;;;;;;26.21;24.57;94485.84;5033882;28;20082;-74
2023/10/21 09:47:08;;;;;;;9.18;1.75;;;;;;;26.34;24.02;94482.97;5050357;28;20040;-74
2023/10/21 09:49:40;;;;;;;9.20;1.70;;;;;;;26.47;23.76;94485.38;5067643;28;20117;-74
2023/10/21 09:52:11;;;;;;;10.48;1.90;;;;;;;26.61;23.70;94499.28;5056416;28;20033;-74
2023/10/21 09:54:55;;;;;;;6.68;1.85;;;;;;;26.35;24.54;94489.91;5072664;28;20052;-74
2023/10/21 09:57:21;;;;;;;14.02;2.00;;;;;;;26.36;24.34;94472.09;5057015;28;20032;-74
2023/10/21 09:59:46;;;;;;;8.10;1.75;;;;;;;26.36;23.34;94483.56;5054564;28;20078;-74
2023/10/21 10:02:11;;;;;;;7.68;1.65;;;;;;;26.40;23.48;94491.88;5055921;28;20502;-74
2023/10/21 10:04:37;;;;;;;6.32;1.73;;;;;;;26.52;23.39;94506.00;5056072;28;20036;-75
2023/10/21 10:07:09;;;;;;;7.47;1.60;;;;;;;26.38;23.74;94494.75;5037167;28;20037;-74
2023/10/21 10:09:38;;;;;;;10.93;2.47;;;;;;;26.51;23.24;94496.41;5072758;28;20032;-74
2023/10/21 10:12:08;;;;;;;7.93;2.22;;;;;;;26.45;23.18;94492.78;5056499;28;20513;-74
2023/10/21 10:14:34;;;;;;;7.03;2.13;;;;;;;26.50;22.64;94478.78;5039110;28;20041;-74
2023/10/21 10:17:00;;;;;;;8.38;1.90;;;;;;;26.63;22.95;94483.88;5054087;28;20055;-74
2023/10/21 10:19:43;;;;;;;7.50;2.45;;;;;;;26.27;24.01;94435.19;5073995;28;20495;-74
2023/10/21 10:22:19;;;;;;;12.13;2.05;;;;;;;26.44;23.65;94474.38;5055499;28;20032;-74
2023/10/21 10:24:54;;;;;;;8.38;2.10;;;;;;;26.59;23.49;94481.94;5055641;28;20033;-74
2023/10/21 10:27:19;;;;;;;9.70;2.33;;;;;;;26.65;23.86;94488.97;5054323;28;20039;-74
2023/10/21 10:29:49;;;;;;;7.43;1.73;;;;;;;26.68;23.05;94473.31;5072026;28;20044;-74
2023/10/21 10:32:15;;;;;;;7.35;1.70;;;;;;;26.69;22.98;94479.47;5055420;28;20032;-74
2023/10/21 10:34:53;;;;;;;9.13;2.20;;;;;;;26.61;23.91;94463.88;5070526;28;20426;-74
2023/10/21 10:37:30;;;;;;;9.73;2.22;;;;;;;26.54;24.11;94473.81;5055348;28;20418;-74
2023/10/21 10:39:55;;;;;;;11.25;2.20;;;;;;;26.59;23.86;94465.94;5073643;28;20098;-74
2023/10/21 10:42:25;;;;;;;10.00;1.90;;;;;;;26.64;23.09;94466.88;5071768;28;20510;-74
2023/10/21 10:44:51;;;;;;;10.13;2.42;;;;;;;26.80;23.67;94480.47;5053997;28;20039;-74
2023/10/21 10:47:17;;;;;;;10.32;1.83;;;;;;;26.85;23.21;94459.28;5055025;28;20036;-74
2023/10/21 10:50:00;;;;;;;12.32;1.88;;;;;;;26.86;23.19;94466.25;5071957;28;20094;-74
2023/10/21 10:52:31;;;;;;;9.02;1.80;;;;;;;26.82;23.29;94471.22;5069906;28;20029;-74
2023/10/21 10:54:58;;;;;;;9.90;2.13;;;;;;;26.57;23.25;94444.06;5071590;28;20111;-74
2023/10/21 10:57:23;;;;;;;9.98;1.80;;;;;;;26.64;23.30;94466.88;5072796;28;20077;-74
2023/10/21 10:59:50;;;;;;;11.10;1.75;;;;;;;26.84;22.47;94449.66;5071429;28;20028;-74
2023/10/21 11:02:17;;;;;;;12.85;1.90;;;;;;;26.81;22.89;94452.81;5070206;28;20052;-74
2023/10/21 11:04:45;;;;;;;9.70;2.00;;;;;;;26.90;22.88;94446.84;5073123;28;20121;-74
2023/10/21 11:07:11;;;;;;;8.77;2.10;;;;;;;26.83;22.58;94475.50;5054494;28;20029;-74
2023/10/21 11:09:36;;;;;;;11.68;2.25;;;;;;;26.76;22.25;94455.38;5073018;28;20393;-74
2023/10/21 11:12:02;;;;;;;11.55;2.22;;;;;;;26.89;22.80;94469.22;5053204;28;20033;-74
2023/10/21 11:14:27;;;;;;;11.77;2.35;;;;;;;26.76;23.22;94450.03;5071152;28;20036;-74
2023/10/21 11:16:53;;;;;;;12.93;2.10;;;;;;;26.74;23.66;94459.09;5054604;28;20032;-74
2023/10/21 11:19:18;;;;;;;8.55;1.90;;;;;;;26.84;23.74;94455.81;5036836;28;20045;-74
2023/10/21 11:21:48;;;;;;;11.50;2.22;;;;;;;26.75;23.32;94433.25;5054538;28;20024;-74
2023/10/21 11:24:14;;;;;;;14.65;2.00;;;;;;;26.97;22.48;94452.06;5072649;28;20033;-74
2023/10/21 11:26:39;;;;;;;11.35;2.33;;;;;;;26.88;23.63;94450.81;5071043;28;20043;-74
2023/10/21 11:29:08;;;;;;;10.35;2.13;;;;;;;26.95;22.98;94454.16;5069496;28;20040;-74